»·PEaware :: N198TS KTNP-KPSP

N198TS :: KTNP-KPSP

FLIGHT INFORMATION

Flight Status: Arrived
Operator: Privately registered:
United States
More flights under this callsign
Pilot: Adam S. (8156)
Aircraft: Unknown
(DA62)
More flights by this aircraft type
Origin: KTNP Twentynine Palms
United States
Destination: KPSP Palm Springs Intl
United States
More flights between these airports :: More routes between these airports
Route: SBONO RNAV 31L
File this flight plan on PilotEdge
Remarks: learning / practice
Altitude:
(Current/Filed)
8,000ft
Speed:
(Current/Filed)
165kts
Departed: 07-Apr-18 06:52 PM
Arrived: 07-Apr-18 07:14 PM
Distance/Time
Traveled:
33nm/0:22
Distance/Time
To Go:
Arrived

Flight Plot

Page will automatically refresh every two minutes.

Flight plan parsing failed; only flown route is shown


Map Options




Map Legend


Flown Route
Filed Route
Departure Airport
Arrival Airport
Navaid (VOR, NDB)
Fix

Horizontal Profiles

Position Reports

Time Latitude Longitude Heading Altitude Ground
Speed
07-Apr-18 18:34 34.135864 -115.942595 179 1817ft 0kts
07-Apr-18 18:35 34.135864 -115.942595 179 1817ft 0kts
07-Apr-18 18:36 34.135864 -115.942595 179 1817ft 0kts
07-Apr-18 18:37 34.135864 -115.942595 179 1817ft 0kts
07-Apr-18 18:38 34.135864 -115.942595 179 1817ft 0kts
07-Apr-18 18:39 34.135864 -115.942595 179 1817ft 0kts
07-Apr-18 18:40 34.135864 -115.942595 179 1817ft 0kts
07-Apr-18 18:41 34.135864 -115.942595 179 1817ft 0kts
07-Apr-18 18:42 34.135864 -115.942595 179 1817ft 0kts
07-Apr-18 18:43 34.135864 -115.942595 179 1817ft 0kts
07-Apr-18 18:44 34.135864 -115.942595 179 1817ft 0kts
07-Apr-18 18:45 34.135864 -115.942595 179 1817ft 0kts
07-Apr-18 18:46 34.135652 -115.941559 167 1812ft 8kts
07-Apr-18 18:47 34.135273 -115.938039 91 1795ft 16kts
07-Apr-18 18:48 34.135036 -115.935215 175 1781ft 10kts
07-Apr-18 18:49 34.134877 -115.935207 197 1781ft 0kts
07-Apr-18 18:50 34.134866 -115.935209 187 1781ft 0kts
07-Apr-18 18:51 34.134094 -115.942401 272 1925ft 67kts
07-Apr-18 18:52 34.132198 -115.972456 271 3053ft 98kts
07-Apr-18 18:53 34.109851 -115.991079 184 4032ft 151kts
07-Apr-18 18:54 34.067400 -115.989542 197 4891ft 150kts
07-Apr-18 18:55 34.029310 -116.003703 214 5886ft 142kts
07-Apr-18 18:56 33.994132 -116.023218 215 6882ft 141kts
07-Apr-18 18:57 33.958938 -116.043184 215 7881ft 142kts
07-Apr-18 18:58 33.917301 -116.044317 179 8229ft 193kts
07-Apr-18 18:59 33.875827 -116.073583 224 8030ft 179kts
07-Apr-18 19:00 33.834597 -116.109493 222 7610ft 179kts
07-Apr-18 19:01 33.792941 -116.130380 209 8001ft 168kts
07-Apr-18 19:02 33.752195 -116.152926 209 8039ft 168kts
07-Apr-18 19:03 33.712079 -116.180211 212 7670ft 167kts
07-Apr-18 19:04 33.688849 -116.221763 269 6711ft 167kts
07-Apr-18 19:05 33.683492 -116.276879 269 5585ft 173kts
07-Apr-18 19:06 33.678146 -116.333394 270 4119ft 173kts
07-Apr-18 19:07 33.687609 -116.375164 321 3924ft 114kts
07-Apr-18 19:08 33.713418 -116.400409 324 3225ft 132kts
07-Apr-18 19:09 33.741074 -116.426027 321 2449ft 123kts
07-Apr-18 19:10 33.767425 -116.450362 321 1783ft 118kts
07-Apr-18 19:11 33.792688 -116.473724 321 1166ft 116kts
07-Apr-18 19:12 33.816258 -116.495800 323 623ft 65kts
07-Apr-18 19:13 33.825834 -116.504276 322 481ft 19kts
07-Apr-18 19:14 33.828678 -116.506747 330 481ft 17kts
07-Apr-18 19:15 33.830179 -116.506932 62 481ft 0kts
07-Apr-18 19:16 33.830085 -116.506402 134 481ft 8kts
07-Apr-18 19:17 33.827648 -116.504176 142 481ft 12kts
07-Apr-18 19:18 33.824666 -116.501502 143 481ft 13kts
07-Apr-18 19:19 33.821176 -116.498431 144 481ft 16kts
07-Apr-18 19:20 33.820461 -116.495478 351 481ft 9kts
07-Apr-18 19:21 33.822055 -116.496696 322 481ft 13kts
07-Apr-18 19:22 33.823923 -116.497535 240 481ft 1kts
07-Apr-18 19:23 33.823923 -116.497536 242 481ft 0kts
07-Apr-18 19:24 33.823923 -116.497536 242 481ft 0kts
07-Apr-18 19:25 33.823923 -116.497536 242 481ft 0kts
07-Apr-18 19:26 33.823923 -116.497536 242 481ft 0kts
07-Apr-18 19:27 33.823923 -116.497536 242 481ft 0kts

Navigation Log

Ident Type
Flight plan parsing failed, navigation log unavailable